createdAt,value
2018-12-10T00:00:40.394Z,8.20
2018-12-10T00:03:14.425Z,8.20
2018-12-10T00:05:42.565Z,8.20
2018-12-10T00:08:10.689Z,8.10
2018-12-10T00:10:41.737Z,8.10
2018-12-10T00:13:09.020Z,8.10
2018-12-10T00:15:37.249Z,8.10
2018-12-10T00:18:05.485Z,8.00
2018-12-10T00:20:33.697Z,8.00
2018-12-10T00:23:01.780Z,8.00
2018-12-10T00:25:30.254Z,8.00
2018-12-10T00:27:58.334Z,8.00
2018-12-10T00:30:26.545Z,8.00
2018-12-10T00:32:54.692Z,7.90
2018-12-10T00:35:22.843Z,8.00
2018-12-10T00:37:51.039Z,8.00
2018-12-10T00:40:19.640Z,8.00
2018-12-10T00:42:47.813Z,8.10
2018-12-10T00:45:16.001Z,8.10
2018-12-10T00:47:44.435Z,8.10
2018-12-10T00:50:12.729Z,8.10
2018-12-10T00:52:40.808Z,8.10
2018-12-10T00:55:09.032Z,8.10
2018-12-10T00:57:37.098Z,8.10
2018-12-10T01:00:05.581Z,8.10
2018-12-10T01:02:34.081Z,8.10
2018-12-10T01:05:02.264Z,8.10
2018-12-10T01:07:30.328Z,8.10
2018-12-10T01:09:58.425Z,8.10
2018-12-10T01:12:26.559Z,8.10
2018-12-10T01:14:54.856Z,8.10
2018-12-10T01:17:23.337Z,8.10
2018-12-10T01:19:51.552Z,8.10
2018-12-10T01:22:19.820Z,8.00
2018-12-10T01:24:48.218Z,8.10
2018-12-10T01:27:16.273Z,8.00
2018-12-10T01:29:44.424Z,8.00
2018-12-10T01:32:12.516Z,8.00
2018-12-10T01:34:40.678Z,8.00
2018-12-10T01:37:08.740Z,8.00
2018-12-10T01:39:37.110Z,8.00
2018-12-10T01:42:05.174Z,8.00
2018-12-10T01:44:33.313Z,8.00
2018-12-10T01:47:01.733Z,8.00
2018-12-10T01:49:29.936Z,8.00
2018-12-10T01:51:58.005Z,8.00
2018-12-10T01:54:26.360Z,8.00
2018-12-10T01:56:54.455Z,8.00
2018-12-10T01:59:22.612Z,8.00
2018-12-10T02:01:50.753Z,8.00
2018-12-10T02:04:18.934Z,8.00
2018-12-10T02:06:47.060Z,8.10
2018-12-10T02:09:15.509Z,8.10
2018-12-10T02:11:43.738Z,8.10
2018-12-10T02:14:11.910Z,8.10
2018-12-10T02:16:40.096Z,8.10
2018-12-10T02:19:08.201Z,8.10
2018-12-10T02:21:36.277Z,8.10
2018-12-10T02:24:04.429Z,8.10
2018-12-10T02:26:32.488Z,8.10
2018-12-10T02:29:06.520Z,8.10
2018-12-10T02:31:34.619Z,8.10
2018-12-10T02:34:02.680Z,8.10
2018-12-10T02:36:30.821Z,8.10
2018-12-10T02:38:59.089Z,8.10
2018-12-10T02:41:27.216Z,8.10
2018-12-10T02:43:55.340Z,8.10
2018-12-10T02:46:23.525Z,8.00
2018-12-10T02:48:51.665Z,8.00
2018-12-10T02:51:20.149Z,8.00
2018-12-10T02:53:48.209Z,8.00
2018-12-10T02:56:16.277Z,8.00
2018-12-10T02:58:44.420Z,7.90
2018-12-10T03:01:12.537Z,8.00
2018-12-10T03:03:40.779Z,7.90
2018-12-10T03:06:09.318Z,7.90
2018-12-10T03:08:37.543Z,7.90
2018-12-10T03:11:05.961Z,7.90
2018-12-10T03:13:36.436Z,7.90
2018-12-10T03:16:04.380Z,7.90
2018-12-10T03:18:32.581Z,7.90
2018-12-10T03:21:00.987Z,7.90
2018-12-10T03:23:29.069Z,7.90
2018-12-10T03:25:57.192Z,7.90
2018-12-10T03:28:25.341Z,7.90
2018-12-10T03:30:53.415Z,7.90
2018-12-10T03:33:21.611Z,7.90
2018-12-10T03:35:49.836Z,7.90
2018-12-10T03:38:17.901Z,7.80
2018-12-10T03:40:45.960Z,7.80
2018-12-10T03:43:14.025Z,7.80
2018-12-10T03:45:42.088Z,7.80
2018-12-10T03:48:10.152Z,7.80
2018-12-10T03:50:38.600Z,7.80
2018-12-10T03:53:06.665Z,7.80
2018-12-10T03:55:34.721Z,7.80
2018-12-10T03:58:02.798Z,7.80
2018-12-10T04:00:30.943Z,7.80
2018-12-10T04:02:59.092Z,7.80
2018-12-10T04:05:27.555Z,7.90
2018-12-10T04:07:55.721Z,7.90
2018-12-10T04:10:23.850Z,7.80
2018-12-10T04:12:52.060Z,7.90
2018-12-10T04:15:20.265Z,7.90
2018-12-10T04:17:48.429Z,7.90
2018-12-10T04:20:16.528Z,7.90
2018-12-10T04:22:44.759Z,7.90
2018-12-10T04:25:12.869Z,7.90
2018-12-10T04:27:41.327Z,7.80
2018-12-10T04:30:09.528Z,7.80
2018-12-10T04:32:37.657Z,7.80
2018-12-10T04:35:05.993Z,7.80
2018-12-10T04:37:34.057Z,7.80
2018-12-10T04:40:02.186Z,7.80
2018-12-10T04:42:30.689Z,7.80
2018-12-10T04:44:58.748Z,7.80
2018-12-10T04:47:26.830Z,7.80
2018-12-10T04:49:54.909Z,7.80
2018-12-10T04:52:22.970Z,7.80
2018-12-10T04:54:51.151Z,7.90
2018-12-10T04:57:19.641Z,7.90
2018-12-10T04:59:52.749Z,7.90
2018-12-10T05:02:17.732Z,7.90
2018-12-10T05:04:45.868Z,7.90
2018-12-10T05:07:14.182Z,7.90
2018-12-10T05:09:42.801Z,7.90
2018-12-10T05:12:10.921Z,7.90
2018-12-10T05:14:39.066Z,7.90
2018-12-10T05:17:07.137Z,7.90
2018-12-10T05:19:35.654Z,7.90
2018-12-10T05:22:03.779Z,7.90
2018-12-10T05:24:31.831Z,7.90
2018-12-10T05:27:01.241Z,7.90
2018-12-10T05:29:29.496Z,7.90
2018-12-10T05:31:57.730Z,7.90
2018-12-10T05:34:26.068Z,7.90
2018-12-10T05:36:54.384Z,7.90
2018-12-10T05:39:22.452Z,7.90
2018-12-10T05:41:50.516Z,7.90
2018-12-10T05:44:18.720Z,7.90
2018-12-10T05:46:46.792Z,8.00
2018-12-10T05:49:30.529Z,8.00
2018-12-10T05:51:58.756Z,7.90
2018-12-10T05:54:26.985Z,8.00
2018-12-10T05:56:55.365Z,7.90
2018-12-10T05:59:23.604Z,8.00
2018-12-10T06:01:51.829Z,8.00
2018-12-10T06:04:20.124Z,7.90
2018-12-10T06:06:48.488Z,7.90
2018-12-10T06:09:16.724Z,7.90
2018-12-10T06:11:45.309Z,7.90
2018-12-10T06:14:13.545Z,7.90
2018-12-10T06:16:41.867Z,7.90
2018-12-10T06:19:10.436Z,7.90
2018-12-10T06:21:38.669Z,7.90
2018-12-10T06:24:06.886Z,7.90
2018-12-10T06:26:35.142Z,7.90
2018-12-10T06:29:03.376Z,7.90
2018-12-10T06:31:31.594Z,7.90
2018-12-10T06:33:59.817Z,7.90
2018-12-10T06:36:28.068Z,7.90
2018-12-10T06:38:56.291Z,7.90
2018-12-10T06:41:24.522Z,8.00
2018-12-10T06:43:54.932Z,8.00
2018-12-10T06:46:23.259Z,8.00
2018-12-10T06:48:51.532Z,8.00
2018-12-10T06:51:20.127Z,8.00
2018-12-10T06:53:48.538Z,8.00
2018-12-10T06:56:16.765Z,8.00
2018-12-10T06:58:44.977Z,8.00
2018-12-10T07:01:13.261Z,7.90
2018-12-10T07:03:41.589Z,8.00
2018-12-10T07:06:10.490Z,7.90
2018-12-10T07:08:38.783Z,8.00
2018-12-10T07:11:07.032Z,7.90
2018-12-10T07:13:35.294Z,7.90
2018-12-10T07:16:08.396Z,7.90
2018-12-10T07:18:36.621Z,7.90
2018-12-10T07:21:04.960Z,7.90
2018-12-10T07:23:33.209Z,7.90
2018-12-10T07:26:01.446Z,7.90
2018-12-10T07:28:29.676Z,7.90
2018-12-10T07:30:57.942Z,7.90
2018-12-10T07:33:26.200Z,7.90
2018-12-10T07:35:54.456Z,7.90
2018-12-10T07:38:22.721Z,7.90
2018-12-10T07:40:50.993Z,7.90
2018-12-10T07:43:19.237Z,7.90
2018-12-10T07:45:47.597Z,7.90
2018-12-10T07:48:16.024Z,7.90
2018-12-10T07:50:44.296Z,7.90
2018-12-10T07:53:12.909Z,7.90
2018-12-10T07:55:41.249Z,7.90
2018-12-10T07:58:09.476Z,7.90
2018-12-10T08:00:37.716Z,7.90
2018-12-10T08:03:06.056Z,7.90
2018-12-10T08:05:34.336Z,7.90
2018-12-10T08:08:02.571Z,7.90
2018-12-10T08:10:30.815Z,7.90
2018-12-10T08:12:59.075Z,7.90
2018-12-10T08:15:27.601Z,7.90
2018-12-10T08:17:56.853Z,8.00
2018-12-10T08:20:25.112Z,8.00
2018-12-10T08:22:53.688Z,8.00
2018-12-10T08:25:23.258Z,8.00
2018-12-10T08:27:51.772Z,8.00
2018-12-10T08:30:20.370Z,8.00
2018-12-10T08:32:48.664Z,8.00
2018-12-10T08:35:16.941Z,8.00
2018-12-10T08:37:45.248Z,8.00
2018-12-10T08:40:13.504Z,8.00
2018-12-10T08:42:41.784Z,8.00
2018-12-10T08:45:09.973Z,8.00
2018-12-10T08:47:38.105Z,8.10
2018-12-10T08:50:06.602Z,8.10
2018-12-10T08:52:34.761Z,8.10
2018-12-10T08:55:05.138Z,8.10
2018-12-10T08:57:33.324Z,8.10
2018-12-10T09:00:01.604Z,8.10
2018-12-10T09:02:29.809Z,8.10
2018-12-10T09:04:58.009Z,8.10
2018-12-10T09:07:26.232Z,8.10
2018-12-10T09:09:54.350Z,8.20
2018-12-10T09:12:22.506Z,8.20
2018-12-10T09:14:50.983Z,8.20
2018-12-10T09:17:19.164Z,8.20
2018-12-10T09:19:47.289Z,8.30
2018-12-10T09:22:15.807Z,8.30
2018-12-10T09:24:43.877Z,8.30
2018-12-10T09:27:12.190Z,8.30
2018-12-10T09:29:40.397Z,8.30
2018-12-10T09:32:08.789Z,8.30
2018-12-10T09:34:36.908Z,8.30
2018-12-10T09:37:05.105Z,8.30
2018-12-10T09:39:33.257Z,8.30
2018-12-10T09:42:01.355Z,8.30
2018-12-10T09:44:29.571Z,8.30
2018-12-10T09:46:59.138Z,8.30
2018-12-10T09:49:27.495Z,8.30
2018-12-10T09:51:56.038Z,8.30
2018-12-10T09:54:24.188Z,8.30
2018-12-10T09:56:52.261Z,8.30
2018-12-10T09:59:20.668Z,8.30
2018-12-10T10:01:48.870Z,8.30
2018-12-10T10:04:17.000Z,8.40
2018-12-10T10:06:45.156Z,8.40
2018-12-10T10:09:13.313Z,8.40
2018-12-10T10:11:41.442Z,8.50
2018-12-10T10:14:09.916Z,8.50
2018-12-10T10:16:38.040Z,8.50
2018-12-10T10:19:06.144Z,8.60
2018-12-10T10:21:34.637Z,8.60
2018-12-10T10:24:02.714Z,8.60
2018-12-10T10:26:30.779Z,8.60
2018-12-10T10:28:58.852Z,8.60
2018-12-10T10:31:26.985Z,8.60
2018-12-10T10:33:55.048Z,8.60
2018-12-10T10:36:23.252Z,8.60
2018-12-10T10:38:51.326Z,8.60
2018-12-10T10:41:19.405Z,8.70
2018-12-10T10:43:47.590Z,8.70
2018-12-10T10:46:15.721Z,8.70
2018-12-10T10:48:43.865Z,8.80
2018-12-10T10:51:12.126Z,8.80
2018-12-10T10:53:40.365Z,8.80
2018-12-10T10:56:08.551Z,8.80
2018-12-10T10:58:36.681Z,8.80
2018-12-10T11:02:13.863Z,8.80
2018-12-10T11:04:42.037Z,8.80
2018-12-10T11:07:10.201Z,8.80
2018-12-10T11:09:38.554Z,8.80
2018-12-10T11:12:07.152Z,8.90
2018-12-10T11:14:35.204Z,9.00
2018-12-10T11:17:03.604Z,9.00
2018-12-10T11:19:32.184Z,9.00
2018-12-10T11:22:00.289Z,9.00
2018-12-10T11:24:28.470Z,9.10
2018-12-10T11:26:56.621Z,9.10
2018-12-10T11:29:24.769Z,9.10
2018-12-10T11:31:53.021Z,9.10
2018-12-10T11:34:21.457Z,9.10
2018-12-10T11:36:49.685Z,9.10
2018-12-10T11:39:17.836Z,9.20
2018-12-10T11:41:46.659Z,9.20
2018-12-10T11:44:15.148Z,9.20
2018-12-10T11:46:43.291Z,9.20
2018-12-10T11:49:11.374Z,9.30
2018-12-10T11:51:39.503Z,9.30
2018-12-10T11:54:07.564Z,9.30
2018-12-10T11:56:35.732Z,9.30
2018-12-10T11:59:04.000Z,9.40
2018-12-10T12:01:32.213Z,9.40
2018-12-10T12:04:00.738Z,9.40
2018-12-10T12:06:28.808Z,9.40
2018-12-10T12:08:56.961Z,9.50
2018-12-10T12:11:25.185Z,9.50
2018-12-10T12:13:53.422Z,9.60
2018-12-10T12:16:21.655Z,9.60
2018-12-10T12:18:50.197Z,9.60
2018-12-10T12:21:18.321Z,9.70
2018-12-10T12:23:46.381Z,9.70
2018-12-10T12:26:14.488Z,9.70
2018-12-10T12:28:42.646Z,9.70
2018-12-10T12:31:10.856Z,9.70
2018-12-10T12:33:38.953Z,9.80
2018-12-10T12:36:07.141Z,9.80
2018-12-10T12:38:35.269Z,9.90
2018-12-10T12:41:03.870Z,9.90
2018-12-10T12:43:31.941Z,9.90
2018-12-10T12:46:00.156Z,10.00
2018-12-10T12:48:28.701Z,10.00
2018-12-10T12:50:56.833Z,10.00
2018-12-10T12:53:24.997Z,10.00
2018-12-10T12:55:53.427Z,10.00
2018-12-10T12:58:21.556Z,10.00
2018-12-10T13:00:49.742Z,10.00
2018-12-10T13:03:17.960Z,10.10
2018-12-10T13:05:46.036Z,10.10
2018-12-10T13:08:14.188Z,10.10
2018-12-10T13:10:42.360Z,10.00
2018-12-10T13:13:11.239Z,10.10
2018-12-10T13:15:39.280Z,10.10
2018-12-10T13:18:07.814Z,10.10
2018-12-10T13:20:35.890Z,10.10
2018-12-10T13:23:03.963Z,10.10
2018-12-10T13:25:32.435Z,10.10
2018-12-10T13:28:00.705Z,10.10
2018-12-10T13:30:28.960Z,10.10
2018-12-10T13:32:57.153Z,10.10
2018-12-10T13:35:25.234Z,10.10
2018-12-10T13:37:53.376Z,10.10
2018-12-10T13:40:21.999Z,10.10
2018-12-10T13:42:50.286Z,10.10
2018-12-10T13:45:18.487Z,10.10
2018-12-10T13:47:46.573Z,10.10
2018-12-10T13:50:14.733Z,10.10
2018-12-10T13:52:42.877Z,10.10
2018-12-10T13:55:11.392Z,10.10
2018-12-10T13:57:39.470Z,10.10
2018-12-10T14:00:09.856Z,10.10
2018-12-10T14:02:38.140Z,10.10
2018-12-10T14:05:10.579Z,10.10
2018-12-10T14:07:38.690Z,10.10
2018-12-10T14:10:06.932Z,10.10
2018-12-10T14:12:35.061Z,10.10
2018-12-10T14:15:03.891Z,10.10
2018-12-10T14:17:31.953Z,10.10
2018-12-10T14:20:00.178Z,10.10
2018-12-10T14:22:28.261Z,10.10
2018-12-10T14:24:56.392Z,10.00
2018-12-10T14:27:24.528Z,10.00
2018-12-10T14:29:53.156Z,10.00
2018-12-10T14:32:21.404Z,10.00
2018-12-10T14:34:49.578Z,10.00
2018-12-10T14:37:17.682Z,10.00
2018-12-10T14:39:45.808Z,10.00
2018-12-10T14:42:21.760Z,10.00
2018-12-10T14:44:49.857Z,10.00
2018-12-10T14:47:18.109Z,9.90
2018-12-10T14:49:46.354Z,9.80
2018-12-10T14:52:14.480Z,9.80
2018-12-10T14:54:42.616Z,9.70
2018-12-10T14:57:10.761Z,9.70
2018-12-10T14:59:39.021Z,9.60
2018-12-10T15:02:07.148Z,9.50
2018-12-10T15:04:35.303Z,9.50
2018-12-10T15:07:03.613Z,9.40
2018-12-10T15:09:31.753Z,9.40
2018-12-10T15:12:00.269Z,9.40
2018-12-10T15:14:28.398Z,9.30
2018-12-10T15:16:56.465Z,9.20
2018-12-10T15:19:24.923Z,9.20
2018-12-10T15:21:53.001Z,9.10
2018-12-10T15:24:21.349Z,9.10
2018-12-10T15:26:49.967Z,9.00
2018-12-10T15:29:18.175Z,9.00
2018-12-10T15:31:46.258Z,8.90
2018-12-10T15:34:14.481Z,8.90
2018-12-10T15:36:42.605Z,8.90
2018-12-10T15:39:10.750Z,8.80
2018-12-10T15:41:39.360Z,8.80
2018-12-10T15:44:07.568Z,8.80
2018-12-10T15:46:35.634Z,8.80
2018-12-10T15:49:03.786Z,8.70
2018-12-10T15:51:31.889Z,8.70
2018-12-10T15:53:59.940Z,8.70
2018-12-10T15:56:28.137Z,8.70
2018-12-10T15:58:59.373Z,8.70
2018-12-10T16:01:28.297Z,8.70
2018-12-10T16:03:56.518Z,8.70
2018-12-10T16:06:24.707Z,8.70
2018-12-10T16:08:52.776Z,8.70
2018-12-10T16:11:21.097Z,8.70
2018-12-10T16:13:49.160Z,8.70
2018-12-10T16:16:17.317Z,8.70
2018-12-10T16:18:45.461Z,8.60
2018-12-10T16:21:13.585Z,8.60
2018-12-10T16:23:41.985Z,8.60
2018-12-10T16:26:10.264Z,8.60
2018-12-10T16:28:38.461Z,8.60
2018-12-10T16:31:07.513Z,8.50
2018-12-10T16:33:35.685Z,8.50
2018-12-10T16:36:03.997Z,8.50
2018-12-10T16:38:32.636Z,8.50
2018-12-10T16:41:00.704Z,8.40
2018-12-10T16:43:28.852Z,8.40
2018-12-10T16:45:57.053Z,8.30
2018-12-10T16:48:25.253Z,8.30
2018-12-10T16:50:53.755Z,8.30
2018-12-10T16:53:21.946Z,8.30
2018-12-10T16:55:50.031Z,8.20
2018-12-10T16:58:18.165Z,8.20
2018-12-10T17:00:46.300Z,8.20
2018-12-10T17:03:14.493Z,8.10
2018-12-10T17:05:42.757Z,8.10
2018-12-10T17:08:10.952Z,8.10
2018-12-10T17:10:39.122Z,8.00
2018-12-10T17:13:07.217Z,8.10
2018-12-10T17:15:35.800Z,8.00
2018-12-10T17:18:03.936Z,8.00
2018-12-10T17:20:32.129Z,8.00
2018-12-10T17:23:00.229Z,8.00
2018-12-10T17:25:28.497Z,8.00
2018-12-10T17:27:56.632Z,7.90
2018-12-10T17:30:24.789Z,7.90
2018-12-10T17:32:52.917Z,7.90
2018-12-10T17:35:21.057Z,7.90
2018-12-10T17:37:49.144Z,7.90
2018-12-10T17:40:17.434Z,7.90
2018-12-10T17:42:45.768Z,7.90
2018-12-10T17:45:14.375Z,7.80
2018-12-10T17:47:42.576Z,7.80
2018-12-10T17:50:11.912Z,7.80
2018-12-10T17:52:40.202Z,7.80
2018-12-10T17:55:08.620Z,7.70
2018-12-10T17:57:36.701Z,7.70
2018-12-10T18:00:07.252Z,7.70
2018-12-10T18:02:35.515Z,7.70
2018-12-10T18:05:03.789Z,7.70
2018-12-10T18:07:31.857Z,7.60
2018-12-10T18:09:59.986Z,7.70
2018-12-10T18:12:28.062Z,7.60
2018-12-10T18:14:56.653Z,7.60
2018-12-10T18:17:24.963Z,7.60
2018-12-10T18:19:53.080Z,7.60
2018-12-10T18:22:21.578Z,7.60
2018-12-10T18:24:49.654Z,7.60
2018-12-10T18:27:17.737Z,7.60
2018-12-10T18:29:45.879Z,7.60
2018-12-10T18:32:14.093Z,7.60
2018-12-10T18:34:42.405Z,7.60
2018-12-10T18:37:10.733Z,7.60
2018-12-10T18:39:38.808Z,7.60
2018-12-10T18:42:06.913Z,7.70
2018-12-10T18:44:34.983Z,7.70
2018-12-10T18:47:03.618Z,7.70
2018-12-10T18:49:31.850Z,7.70
2018-12-10T18:52:00.411Z,7.80
2018-12-10T18:54:29.126Z,7.80
2018-12-10T18:56:57.205Z,7.80
2018-12-10T18:59:25.310Z,7.80
2018-12-10T19:01:53.450Z,7.90
2018-12-10T19:04:21.649Z,7.90
2018-12-10T19:06:49.867Z,8.00
2018-12-10T19:09:18.277Z,7.90
2018-12-10T19:11:46.481Z,8.00
2018-12-10T19:14:14.907Z,8.00
2018-12-10T19:16:43.065Z,8.00
2018-12-10T19:19:11.237Z,8.00
2018-12-10T19:21:39.742Z,8.00
2018-12-10T19:24:07.880Z,8.00
2018-12-10T19:26:35.960Z,8.00
2018-12-10T19:29:04.528Z,8.00
2018-12-10T19:31:32.924Z,8.00
2018-12-10T19:34:03.547Z,7.90
2018-12-10T19:36:31.556Z,7.90
2018-12-10T19:38:59.686Z,7.90
2018-12-10T19:41:28.046Z,7.90
2018-12-10T19:43:56.543Z,7.90
2018-12-10T19:46:24.636Z,7.90
2018-12-10T19:48:52.834Z,7.90
2018-12-10T19:51:21.519Z,7.90
2018-12-10T19:53:49.748Z,7.90
2018-12-10T19:56:18.086Z,7.90
2018-12-10T19:58:46.322Z,7.90
2018-12-10T20:01:14.569Z,7.90
2018-12-10T20:03:42.823Z,7.90
2018-12-10T20:06:18.319Z,7.90
2018-12-10T20:08:46.469Z,7.90
2018-12-10T20:11:14.538Z,7.80
2018-12-10T20:13:43.345Z,7.80
2018-12-10T20:16:11.789Z,7.80
2018-12-10T20:18:40.013Z,7.80
2018-12-10T20:21:08.481Z,7.90
2018-12-10T20:23:36.612Z,7.90
2018-12-10T20:26:04.758Z,7.90
2018-12-10T20:28:33.028Z,7.90
2018-12-10T20:31:01.172Z,7.90
2018-12-10T20:33:29.318Z,7.90
2018-12-10T20:35:57.420Z,7.90
2018-12-10T20:38:25.638Z,7.90
2018-12-10T20:40:53.988Z,7.80
2018-12-10T20:43:22.462Z,7.80
2018-12-10T20:45:50.537Z,7.80
2018-12-10T20:48:18.624Z,7.80
2018-12-10T20:50:47.266Z,7.80
2018-12-10T20:53:15.529Z,7.80
2018-12-10T20:55:43.656Z,7.80
2018-12-10T20:58:11.740Z,7.80
2018-12-10T21:00:39.801Z,7.70
2018-12-10T21:03:07.998Z,7.80
2018-12-10T21:05:40.388Z,7.70
2018-12-10T21:08:08.531Z,7.70
2018-12-10T21:10:36.602Z,7.70
2018-12-10T21:13:04.720Z,7.70
2018-12-10T21:15:32.920Z,7.70
2018-12-10T21:18:00.978Z,7.70
2018-12-10T21:20:29.068Z,7.70
2018-12-10T21:22:57.204Z,7.70
2018-12-10T21:25:25.361Z,7.60
2018-12-10T21:27:53.551Z,7.60
2018-12-10T21:30:21.611Z,7.60
2018-12-10T21:32:49.900Z,7.60
2018-12-10T21:35:18.697Z,7.60
2018-12-10T21:37:46.761Z,7.60
2018-12-10T21:40:14.897Z,7.60
2018-12-10T21:42:43.009Z,7.60
2018-12-10T21:45:11.212Z,7.60
2018-12-10T21:47:39.314Z,7.60
2018-12-10T21:50:07.378Z,7.60
2018-12-10T21:52:35.605Z,7.60
2018-12-10T21:55:03.800Z,7.60
2018-12-10T21:57:31.895Z,7.60
2018-12-10T21:59:59.956Z,7.60
2018-12-10T22:02:28.161Z,7.60
2018-12-10T22:04:56.243Z,7.60
2018-12-10T22:07:24.436Z,7.60
2018-12-10T22:09:52.507Z,7.60
2018-12-10T22:12:20.985Z,7.70
2018-12-10T22:14:49.137Z,7.60
2018-12-10T22:17:17.282Z,7.70
2018-12-10T22:19:45.959Z,7.70
2018-12-10T22:22:14.021Z,7.70
2018-12-10T22:24:42.209Z,7.70
2018-12-10T22:27:10.663Z,7.70
2018-12-10T22:29:38.882Z,7.70
2018-12-10T22:32:07.101Z,7.70
2018-12-10T22:34:35.576Z,7.70
2018-12-10T22:37:03.720Z,7.70
2018-12-10T22:39:31.968Z,7.70
2018-12-10T22:42:00.086Z,7.70
2018-12-10T22:44:28.186Z,7.70
2018-12-10T22:46:56.257Z,7.70
2018-12-10T22:49:24.833Z,7.70
2018-12-10T22:51:53.173Z,7.70
2018-12-10T22:54:21.353Z,7.70
2018-12-10T22:56:49.500Z,7.60
2018-12-10T22:59:17.640Z,7.70
2018-12-10T23:01:45.891Z,7.60
2018-12-10T23:04:14.328Z,7.60
2018-12-10T23:06:42.461Z,7.50
2018-12-10T23:09:10.724Z,7.50
2018-12-10T23:11:39.096Z,7.50
2018-12-10T23:14:07.312Z,7.50
2018-12-10T23:16:35.441Z,7.50
2018-12-10T23:19:04.044Z,7.40
2018-12-10T23:21:32.108Z,7.40
2018-12-10T23:24:00.184Z,7.40
2018-12-10T23:26:28.561Z,7.30
2018-12-10T23:28:56.721Z,7.30
2018-12-10T23:31:24.832Z,7.30
2018-12-10T23:33:52.993Z,7.30
2018-12-10T23:36:21.125Z,7.40
2018-12-10T23:38:49.264Z,7.30
2018-12-10T23:41:17.816Z,7.40
2018-12-10T23:43:45.974Z,7.40
2018-12-10T23:46:14.236Z,7.40
2018-12-10T23:48:42.739Z,7.40
2018-12-10T23:51:10.810Z,7.30
2018-12-10T23:53:38.892Z,7.30
2018-12-10T23:56:06.986Z,7.30
2018-12-10T23:58:35.048Z,7.30
